Time;durP1;ratioP1;P1;durP2;ratioP2;P2;SDS_P1;SDS_P2;PMS_P1;PMS_P2;Temp;Humidity;BMP_temperature;BMP_pressure;BME280_temperature;BME280_humidity;BME280_pressure;Samples;Min_cycle;Max_cycle;Signal;HPM_P1;HPM_P2
2022/04/13 00:00:33;;;;;;;4.90;3.10;;;7.50;49.40;;;;;;5064809;28;46402;-63
2022/04/13 00:02:59;;;;;;;4.33;2.77;;;7.50;49.40;;;;;;5065797;28;46580;-63
2022/04/13 00:05:25;;;;;;;4.57;3.17;;;7.50;49.30;;;;;;5064957;28;47755;-63
2022/04/13 00:07:51;;;;;;;9.57;3.40;;;7.50;49.20;;;;;;5065089;28;46631;-63
2022/04/13 00:10:17;;;;;;;7.67;3.40;;;7.50;49.30;;;;;;5063852;28;46331;-63
2022/04/13 00:12:42;;;;;;;7.03;3.23;;;7.50;49.40;;;;;;5065529;28;46291;-64
2022/04/13 00:15:09;;;;;;;6.57;3.20;;;7.50;49.40;;;;;;5065433;28;48327;-63
2022/04/13 00:17:36;;;;;;;5.40;3.00;;;7.50;49.40;;;;;;5065842;28;46303;-63
2022/04/13 00:20:06;;;;;;;7.33;3.23;;;7.40;49.50;;;;;;5065289;28;46225;-64
2022/04/13 00:22:32;;;;;;;7.07;3.43;;;7.40;49.90;;;;;;5065466;28;46446;-64
2022/04/13 00:25:01;;;;;;;5.93;3.53;;;7.40;50.40;;;;;;5083116;28;46347;-61
2022/04/13 00:27:27;;;;;;;7.40;3.10;;;7.30;50.30;;;;;;5065161;28;46461;-64
2022/04/13 00:29:52;;;;;;;7.43;3.73;;;7.20;50.20;;;;;;5065748;28;46339;-63
2022/04/13 00:32:18;;;;;;;8.63;3.43;;;7.20;50.30;;;;;;5065618;28;46434;-63
2022/04/13 00:34:44;;;;;;;5.80;3.73;;;7.20;50.20;;;;;;5064803;28;47867;-62
2022/04/13 00:37:09;;;;;;;7.27;3.50;;;7.20;50.30;;;;;;5065126;28;46307;-63
2022/04/13 00:39:35;;;;;;;7.43;3.30;;;7.20;50.20;;;;;;5065365;28;46412;-63
2022/04/13 00:42:06;;;;;;;5.50;3.50;;;7.20;50.20;;;;;;5081657;28;46552;-63
2022/04/13 00:44:34;;;;;;;7.50;3.40;;;7.20;50.20;;;;;;5064849;28;46504;-62
2022/04/13 00:47:07;;;;;;;4.77;3.30;;;7.20;50.30;;;;;;5064994;28;46428;-63
2022/04/13 00:49:35;;;;;;;4.63;3.07;;;7.10;50.10;;;;;;5055098;28;46239;-62
2022/04/13 00:52:04;;;;;;;4.87;2.83;;;7.00;50.00;;;;;;5065341;28;46506;-64
2022/04/13 00:54:31;;;;;;;7.27;2.83;;;6.80;50.10;;;;;;5064171;28;46427;-62
2022/04/13 00:56:58;;;;;;;7.43;2.93;;;6.70;50.80;;;;;;5065092;28;46311;-63
2022/04/13 00:59:25;;;;;;;4.50;3.03;;;6.60;51.10;;;;;;5063400;28;46365;-62
2022/04/13 01:01:53;;;;;;;3.83;2.30;;;6.50;51.30;;;;;;5064313;28;46408;-63
2022/04/13 01:04:20;;;;;;;7.33;3.03;;;6.50;51.50;;;;;;5082200;28;46323;-62
2022/04/13 01:06:46;;;;;;;4.77;2.73;;;6.40;51.60;;;;;;5064475;28;46436;-64
2022/04/13 01:09:13;;;;;;;4.97;2.90;;;6.30;51.60;;;;;;5064402;28;46278;-62
2022/04/13 01:11:39;;;;;;;6.63;3.30;;;6.30;51.80;;;;;;5064034;27;46588;-62
2022/04/13 01:14:05;;;;;;;3.60;2.47;;;6.30;51.80;;;;;;5062667;28;47362;-63
2022/04/13 01:16:32;;;;;;;6.80;3.47;;;6.20;51.80;;;;;;5063537;28;46446;-65
2022/04/13 01:18:58;;;;;;;4.50;3.07;;;6.20;51.90;;;;;;5064229;28;46607;-64
2022/04/13 01:21:52;;;;;;;5.53;3.17;;;6.20;51.90;;;;;;5064132;28;46474;-63
2022/04/13 01:24:17;;;;;;;7.40;3.77;;;6.20;52.20;;;;;;5063296;28;47132;-64
2022/04/13 01:26:43;;;;;;;8.07;3.50;;;6.30;51.90;;;;;;5063544;28;46292;-64
2022/04/13 01:29:09;;;;;;;6.20;3.50;;;6.30;51.80;;;;;;5064262;28;46625;-65
2022/04/13 01:31:35;;;;;;;10.33;3.00;;;6.40;51.80;;;;;;5064249;28;46478;-64
2022/04/13 01:34:01;;;;;;;6.83;3.23;;;6.40;51.70;;;;;;5078521;28;46486;-64
2022/04/13 01:36:27;;;;;;;6.40;2.80;;;6.40;51.80;;;;;;5058344;28;46493;-63
2022/04/13 01:38:53;;;;;;;9.83;3.30;;;6.40;51.60;;;;;;5063159;28;45779;-63
2022/04/13 01:41:19;;;;;;;5.40;3.47;;;6.50;51.70;;;;;;5063204;28;46520;-63
2022/04/13 01:43:45;;;;;;;6.30;3.80;;;6.50;51.70;;;;;;5062191;28;48190;-63
2022/04/13 01:46:11;;;;;;;6.50;3.30;;;6.50;51.80;;;;;;5063510;28;46359;-62
2022/04/13 01:48:36;;;;;;;5.77;2.90;;;6.50;51.70;;;;;;5062425;28;46386;-63
2022/04/13 01:51:02;;;;;;;5.90;3.07;;;6.50;51.70;;;;;;5062605;28;46017;-64
2022/04/13 01:53:28;;;;;;;12.87;3.60;;;6.60;51.70;;;;;;5062272;28;48646;-64
2022/04/13 01:55:54;;;;;;;6.80;3.40;;;6.60;51.60;;;;;;5059796;28;46700;-63
2022/04/13 01:58:21;;;;;;;9.67;5.70;;;6.70;51.60;;;;;;5063773;28;45878;-63
2022/04/13 02:00:46;;;;;;;20.97;8.70;;;6.70;51.60;;;;;;5059407;28;45938;-63
2022/04/13 02:03:12;;;;;;;8.43;4.60;;;6.80;51.50;;;;;;5079639;28;46633;-64
2022/04/13 02:05:38;;;;;;;5.30;3.20;;;6.80;51.40;;;;;;5042199;28;46425;-63
2022/04/13 02:08:04;;;;;;;6.63;3.20;;;6.80;51.50;;;;;;5062289;28;46369;-62
2022/04/13 02:10:29;;;;;;;4.53;3.20;;;6.80;51.60;;;;;;5062664;28;46700;-63
2022/04/13 02:12:55;;;;;;;9.23;3.20;;;6.70;51.90;;;;;;5060886;28;48750;-63
2022/04/13 02:15:21;;;;;;;4.27;3.00;;;6.60;51.90;;;;;;5058016;28;46561;-62
2022/04/13 02:17:47;;;;;;;7.93;3.50;;;6.60;52.20;;;;;;5060401;28;46566;-62
2022/04/13 02:20:12;;;;;;;6.20;3.27;;;6.50;52.40;;;;;;5061457;28;46365;-63
2022/04/13 02:22:38;;;;;;;5.03;2.83;;;6.50;52.70;;;;;;5056615;28;49142;-63
2022/04/13 02:25:05;;;;;;;4.57;2.67;;;6.40;52.70;;;;;;5059736;28;46477;-63
2022/04/13 02:27:32;;;;;;;7.27;3.77;;;6.30;52.80;;;;;;5066053;28;46324;-62
2022/04/13 02:29:58;;;;;;;5.70;3.50;;;6.30;53.00;;;;;;5083275;28;46203;-63
2022/04/13 02:32:24;;;;;;;4.17;2.60;;;6.20;53.20;;;;;;5064689;28;47397;-63
2022/04/13 02:34:49;;;;;;;6.53;3.27;;;6.20;53.50;;;;;;5065078;28;46413;-64
2022/04/13 02:37:16;;;;;;;6.60;3.10;;;6.10;53.70;;;;;;5062728;28;46311;-64
2022/04/13 02:39:44;;;;;;;4.90;3.30;;;6.10;53.80;;;;;;5058452;28;46667;-63
2022/04/13 02:42:14;;;;;;;4.40;3.10;;;6.10;53.90;;;;;;5060163;28;48053;-62
2022/04/13 02:44:43;;;;;;;5.37;3.10;;;6.10;53.90;;;;;;5048874;28;46403;-62
2022/04/13 02:47:12;;;;;;;4.57;2.77;;;6.10;53.90;;;;;;5064726;28;46412;-64
2022/04/13 02:49:37;;;;;;;8.20;3.20;;;6.10;53.90;;;;;;5066901;28;46611;-63
2022/04/13 02:52:04;;;;;;;5.10;2.80;;;6.10;54.00;;;;;;5066403;28;48972;-64
2022/04/13 02:54:30;;;;;;;5.50;3.20;;;6.10;54.10;;;;;;5063909;28;46772;-64
2022/04/13 02:56:56;;;;;;;5.47;3.23;;;6.00;55.40;;;;;;5065124;28;45775;-64
2022/04/13 02:59:21;;;;;;;5.10;3.10;;;6.00;54.40;;;;;;5066561;28;46445;-63
2022/04/13 03:01:48;;;;;;;3.90;2.67;;;5.90;54.80;;;;;;5066277;28;47909;-63
2022/04/13 03:04:16;;;;;;;7.53;3.50;;;5.90;54.90;;;;;;5066285;28;46668;-64
2022/04/13 03:06:42;;;;;;;6.77;3.40;;;5.90;55.00;;;;;;5065877;28;46429;-65
2022/04/13 03:09:07;;;;;;;4.87;3.40;;;5.90;55.00;;;;;;5066593;28;45864;-65
2022/04/13 03:11:33;;;;;;;7.50;3.57;;;5.90;55.00;;;;;;5066259;28;47829;-64
2022/04/13 03:13:59;;;;;;;5.60;3.27;;;5.90;55.20;;;;;;5066292;28;46322;-64
2022/04/13 03:16:25;;;;;;;4.53;3.60;;;5.80;55.20;;;;;;5055375;28;46229;-64
2022/04/13 03:18:50;;;;;;;4.10;2.93;;;5.80;55.20;;;;;;5066297;28;46351;-64
2022/04/13 03:21:17;;;;;;;4.30;2.80;;;5.80;55.30;;;;;;5065813;28;46317;-64
2022/04/13 03:23:43;;;;;;;8.50;3.00;;;5.80;55.50;;;;;;5065530;28;46479;-64
2022/04/13 03:26:09;;;;;;;5.80;3.60;;;5.70;55.50;;;;;;5083921;28;46417;-64
2022/04/13 03:28:34;;;;;;;5.13;3.60;;;5.70;55.50;;;;;;5066090;28;46419;-64
2022/04/13 03:31:00;;;;;;;6.93;4.60;;;5.80;55.50;;;;;;5065521;28;48779;-64
2022/04/13 03:33:26;;;;;;;6.83;3.40;;;5.80;55.30;;;;;;5065780;28;46334;-64
2022/04/13 03:35:51;;;;;;;6.03;3.20;;;5.80;55.20;;;;;;5053884;28;46465;-63
2022/04/13 03:38:17;;;;;;;4.47;2.87;;;5.80;55.40;;;;;;5065754;28;46351;-63
2022/04/13 03:40:46;;;;;;;4.20;2.90;;;5.70;55.50;;;;;;5082788;28;46505;-64
2022/04/13 03:43:11;;;;;;;4.30;2.90;;;5.60;55.70;;;;;;5064377;28;46475;-65
2022/04/13 03:45:37;;;;;;;5.27;2.97;;;5.60;55.70;;;;;;5065708;28;46366;-65
2022/04/13 03:48:03;;;;;;;4.67;3.47;;;5.60;55.70;;;;;;5063952;28;46476;-65
2022/04/13 03:50:28;;;;;;;7.40;3.60;;;5.50;55.80;;;;;;5065658;28;49344;-64
2022/04/13 03:52:54;;;;;;;4.33;3.20;;;5.60;55.90;;;;;;5065562;28;46420;-64
2022/04/13 03:55:22;;;;;;;8.27;3.60;;;5.60;55.80;;;;;;5048860;28;46439;-64
2022/04/13 03:57:50;;;;;;;12.63;3.83;;;5.60;55.60;;;;;;5061632;28;46312;-62
2022/04/13 04:00:16;;;;;;;5.27;3.53;;;5.60;55.60;;;;;;5062926;28;48217;-64
2022/04/13 04:02:43;;;;;;;6.07;3.00;;;5.60;55.60;;;;;;5064047;28;46422;-63
2022/04/13 04:05:10;;;;;;;5.50;3.47;;;5.60;55.70;;;;;;5065182;28;46359;-64
2022/04/13 04:07:36;;;;;;;6.77;3.50;;;5.60;55.70;;;;;;5065482;28;46371;-64
2022/04/13 04:10:03;;;;;;;4.17;2.67;;;5.50;56.00;;;;;;5064633;28;48067;-63
2022/04/13 04:12:29;;;;;;;4.33;3.03;;;5.40;56.40;;;;;;5064871;28;45809;-65
2022/04/13 04:15:01;;;;;;;9.30;2.90;;;5.30;56.50;;;;;;5083663;28;46357;-65
2022/04/13 04:17:26;;;;;;;6.20;3.33;;;5.30;56.70;;;;;;5064656;28;45814;-65
2022/04/13 04:19:52;;;;;;;5.70;3.50;;;5.20;56.80;;;;;;5083309;28;46622;-65
2022/04/13 04:22:18;;;;;;;6.83;3.17;;;5.20;56.90;;;;;;5065474;28;46346;-64
2022/04/13 04:24:43;;;;;;;4.60;2.73;;;5.10;57.00;;;;;;5064888;28;46401;-63
2022/04/13 04:27:09;;;;;;;4.10;2.73;;;5.10;56.90;;;;;;5065732;28;46489;-64
2022/04/13 04:29:35;;;;;;;10.40;3.47;;;5.10;56.90;;;;;;5065239;28;48273;-64
2022/04/13 04:32:02;;;;;;;6.13;3.10;;;5.10;56.90;;;;;;5065532;28;46452;-65
2022/04/13 04:34:27;;;;;;;8.47;2.80;;;5.10;57.00;;;;;;5064789;28;46357;-64
2022/04/13 04:36:53;;;;;;;5.83;3.47;;;5.10;57.00;;;;;;5064545;28;46774;-62
2022/04/13 04:39:19;;;;;;;7.00;3.38;;;5.10;57.00;;;;;;5061047;28;47908;-64
2022/04/13 04:41:45;;;;;;;8.33;3.60;;;5.10;57.20;;;;;;5062583;28;46572;-64
2022/04/13 04:44:11;;;;;;;13.57;3.70;;;5.20;57.50;;;;;;5059800;28;46389;-64
2022/04/13 04:46:37;;;;;;;9.95;3.45;;;5.20;57.30;;;;;;5062857;28;46560;-64
2022/04/13 04:49:04;;;;;;;14.80;3.43;;;5.20;59.00;;;;;;5064632;28;47573;-64
2022/04/13 04:51:33;;;;;;;4.97;3.20;;;5.20;59.50;;;;;;5064554;28;46255;-64
2022/04/13 04:54:00;;;;;;;7.67;3.90;;;5.30;59.10;;;;;;5062403;28;46395;-64
2022/04/13 04:56:26;;;;;;;7.55;3.50;;;5.40;60.00;;;;;;5063552;28;46422;-64
2022/04/13 04:58:51;;;;;;;3.77;2.70;;;5.40;61.40;;;;;;5064722;28;48011;-64
2022/04/13 05:01:18;;;;;;;7.33;3.70;;;5.50;61.60;;;;;;5064115;28;46232;-64
2022/04/13 05:03:48;;;;;;;6.37;2.87;;;5.60;61.60;;;;;;5064104;28;46376;-64
2022/04/13 05:06:19;;;;;;;11.20;2.97;;;5.80;60.70;;;;;;5064730;28;46624;-64
2022/04/13 05:08:44;;;;;;;7.80;3.73;;;5.90;60.10;;;;;;5064104;28;47332;-64
2022/04/13 05:11:10;;;;;;;7.83;2.80;;;6.00;59.60;;;;;;5047828;28;46327;-65
2022/04/13 05:13:36;;;;;;;5.70;3.40;;;6.10;59.10;;;;;;5053243;28;46430;-64
2022/04/13 05:16:01;;;;;;;5.87;2.90;;;6.20;58.80;;;;;;5064142;28;46561;-64
2022/04/13 05:18:27;;;;;;;5.37;3.17;;;6.30;58.60;;;;;;5064403;28;46561;-63
2022/04/13 05:20:53;;;;;;;4.40;2.73;;;6.40;58.30;;;;;;5064769;28;46241;-64
2022/04/13 05:23:19;;;;;;;7.73;3.20;;;6.50;58.20;;;;;;5064621;28;46307;-64
2022/04/13 05:25:46;;;;;;;4.90;3.27;;;6.70;58.10;;;;;;5061501;28;45890;-64
2022/04/13 05:28:12;;;;;;;5.20;3.03;;;6.90;57.60;;;;;;5062044;28;48123;-65
2022/04/13 05:30:38;;;;;;;18.93;4.33;;;7.30;57.40;;;;;;5082199;28;46468;-64
2022/04/13 05:33:05;;;;;;;14.77;3.80;;;7.80;57.00;;;;;;5060005;28;46373;-64
2022/04/13 05:35:31;;;;;;;4.53;3.27;;;8.20;56.70;;;;;;5059532;28;46241;-64
2022/04/13 05:37:57;;;;;;;4.50;3.20;;;8.40;56.40;;;;;;5062488;28;47939;-63
2022/04/13 05:40:24;;;;;;;7.00;3.50;;;8.70;56.00;;;;;;5063496;28;46525;-64
2022/04/13 05:42:51;;;;;;;6.17;3.47;;;9.00;55.90;;;;;;5062672;28;46419;-64
2022/04/13 05:45:17;;;;;;;10.20;4.13;;;9.30;55.20;;;;;;5063352;28;46435;-65
2022/04/13 05:47:45;;;;;;;7.30;3.67;;;9.70;54.40;;;;;;5063538;28;48037;-64
2022/04/13 05:50:13;;;;;;;5.50;3.33;;;10.20;52.50;;;;;;5063724;28;46386;-65
2022/04/13 05:52:40;;;;;;;3.73;2.47;;;10.60;52.20;;;;;;5061948;28;46486;-64
2022/04/13 05:55:07;;;;;;;4.33;2.77;;;11.00;51.30;;;;;;5063290;28;46472;-63
2022/04/13 05:57:33;;;;;;;7.70;3.20;;;11.40;50.80;;;;;;5062053;28;46395;-63
2022/04/13 05:59:59;;;;;;;7.60;2.87;;;11.70;49.10;;;;;;5085022;27;46310;-65
2022/04/13 06:02:24;;;;;;;7.20;3.43;;;12.10;48.40;;;;;;5068905;28;46562;-65
2022/04/13 06:04:50;;;;;;;9.80;3.07;;;12.40;47.90;;;;;;5070041;28;46344;-65
2022/04/13 06:07:16;;;;;;;6.43;3.80;;;12.60;46.30;;;;;;5069016;28;48888;-65
2022/04/13 06:09:42;;;;;;;11.63;5.13;;;12.90;45.90;;;;;;5065759;28;45938;-64
2022/04/13 06:12:08;;;;;;;9.63;5.30;;;13.10;45.50;;;;;;5067267;28;46397;-65
2022/04/13 06:14:34;;;;;;;10.07;4.90;;;13.10;44.80;;;;;;5066475;28;46674;-64
2022/04/13 06:17:00;;;;;;;9.73;5.13;;;13.10;44.00;;;;;;5067637;28;47297;-64
2022/04/13 06:19:26;;;;;;;12.67;5.20;;;13.20;43.10;;;;;;5063867;28;46389;-64
2022/04/13 06:21:51;;;;;;;14.00;4.50;;;13.00;43.20;;;;;;5068753;28;46362;-65
2022/04/13 06:24:17;;;;;;;10.47;4.40;;;12.90;43.40;;;;;;5084344;28;46462;-64
2022/04/13 06:26:43;;;;;;;11.80;4.13;;;12.80;43.70;;;;;;5068956;28;48153;-64
2022/04/13 06:29:09;;;;;;;7.10;4.40;;;12.70;44.70;;;;;;5066000;28;46279;-64
2022/04/13 06:31:35;;;;;;;7.60;3.70;;;12.70;45.10;;;;;;5067047;28;46433;-65
2022/04/13 06:34:01;;;;;;;7.80;3.83;;;12.70;44.50;;;;;;5068878;28;46414;-65
2022/04/13 06:36:26;;;;;;;12.47;3.50;;;12.70;44.00;;;;;;5057684;28;48818;-65
2022/04/13 06:38:52;;;;;;;10.00;4.47;;;12.60;44.50;;;;;;5067552;28;46389;-64
2022/04/13 06:41:18;;;;;;;5.70;3.57;;;12.30;45.00;;;;;;5069776;28;45807;-64
2022/04/13 06:43:43;;;;;;;6.37;4.00;;;12.10;45.50;;;;;;5074353;28;46480;-64
2022/04/13 06:46:09;;;;;;;4.57;3.27;;;12.00;45.80;;;;;;5051600;28;48069;-64
2022/04/13 06:48:35;;;;;;;9.07;4.70;;;12.20;45.80;;;;;;5065486;28;46359;-65
2022/04/13 06:51:03;;;;;;;5.20;3.90;;;12.20;46.50;;;;;;5081965;28;46574;-65
2022/04/13 06:53:28;;;;;;;6.77;4.40;;;12.30;46.70;;;;;;5065763;28;46489;-65
2022/04/13 06:55:54;;;;;;;7.20;4.47;;;12.40;46.60;;;;;;5062750;28;47828;-65
2022/04/13 06:58:20;;;;;;;8.40;4.73;;;12.30;46.60;;;;;;5085727;28;46180;-64
2022/04/13 07:00:47;;;;;;;9.30;4.50;;;12.40;46.60;;;;;;5066752;28;46464;-65
2022/04/13 07:03:13;;;;;;;7.70;4.90;;;12.50;46.40;;;;;;5062150;28;46467;-65
2022/04/13 07:05:39;;;;;;;8.87;5.17;;;12.60;46.10;;;;;;5067634;28;46524;-65
2022/04/13 07:08:05;;;;;;;9.73;5.20;;;12.70;46.00;;;;;;5087505;28;46402;-66
2022/04/13 07:10:34;;;;;;;14.20;5.33;;;12.70;45.70;;;;;;5067305;28;46393;-65
2022/04/13 07:13:01;;;;;;;12.73;6.20;;;12.80;45.50;;;;;;5065097;28;46223;-64
2022/04/13 07:15:27;;;;;;;11.93;5.60;;;12.80;45.10;;;;;;5065719;28;48021;-64
2022/04/13 07:17:53;;;;;;;15.63;5.83;;;12.80;45.20;;;;;;5065904;28;46444;-64
2022/04/13 07:20:19;;;;;;;12.83;6.23;;;12.90;44.70;;;;;;5066068;28;46476;-63
2022/04/13 07:22:50;;;;;;;10.80;6.23;;;13.10;44.40;;;;;;5063162;28;46602;-62
2022/04/13 07:25:17;;;;;;;13.17;6.20;;;13.10;44.10;;;;;;5081149;28;47941;-65
2022/04/13 07:27:44;;;;;;;10.77;6.53;;;13.30;43.90;;;;;;5065522;28;46052;-64
2022/04/13 07:30:10;;;;;;;14.60;6.80;;;13.50;43.80;;;;;;5064961;28;46368;-65
2022/04/13 07:32:36;;;;;;;9.50;6.33;;;13.70;43.50;;;;;;5065975;28;46543;-65
2022/04/13 07:35:03;;;;;;;12.60;6.10;;;13.70;43.40;;;;;;5064217;28;47919;-63
2022/04/13 07:37:29;;;;;;;13.17;6.60;;;13.70;43.30;;;;;;5065109;28;46461;-65
2022/04/13 07:39:55;;;;;;;10.07;6.10;;;13.80;43.40;;;;;;5065059;28;46472;-64
2022/04/13 07:42:22;;;;;;;15.10;6.20;;;13.80;43.50;;;;;;5063730;28;46320;-64
2022/04/13 07:44:48;;;;;;;10.87;6.13;;;13.90;43.40;;;;;;5062884;28;48066;-64
2022/04/13 07:47:16;;;;;;;8.07;5.60;;;13.90;43.10;;;;;;5064655;28;46485;-64
2022/04/13 07:49:45;;;;;;;10.80;6.20;;;14.00;42.70;;;;;;5066216;28;46426;-62
2022/04/13 07:52:11;;;;;;;13.00;5.93;;;14.20;42.20;;;;;;5083349;28;46286;-64
2022/04/13 07:54:36;;;;;;;11.83;6.90;;;14.20;42.20;;;;;;5062095;28;49096;-62
2022/04/13 07:57:02;;;;;;;13.60;7.23;;;14.10;42.20;;;;;;5083472;28;46533;-62
2022/04/13 07:59:29;;;;;;;19.63;7.53;;;14.30;40.90;;;;;;5082910;28;46344;-62
2022/04/13 08:01:55;;;;;;;9.13;6.60;;;14.40;40.50;;;;;;5066620;28;46387;-64
2022/04/13 08:04:20;;;;;;;12.90;7.73;;;14.60;40.20;;;;;;5069077;28;47981;-62
2022/04/13 08:06:46;;;;;;;14.80;7.13;;;14.70;39.80;;;;;;5064964;28;46426;-65
2022/04/13 08:09:12;;;;;;;10.33;6.87;;;14.90;39.30;;;;;;5081361;28;46402;-64
2022/04/13 08:11:38;;;;;;;10.43;6.37;;;14.90;39.20;;;;;;5053383;28;46530;-65
2022/04/13 08:14:04;;;;;;;12.70;7.27;;;15.00;38.80;;;;;;5082358;28;47310;-64
2022/04/13 08:16:30;;;;;;;12.83;7.50;;;15.20;38.70;;;;;;5064310;28;46343;-64
2022/04/13 08:18:55;;;;;;;14.50;7.30;;;15.30;38.30;;;;;;5066084;28;46413;-65
2022/04/13 08:21:21;;;;;;;16.40;9.00;;;15.30;37.90;;;;;;5063917;28;46386;-65
2022/04/13 08:23:47;;;;;;;13.23;7.73;;;15.50;37.90;;;;;;5064469;28;48189;-64
2022/04/13 08:26:12;;;;;;;15.27;7.70;;;15.70;37.80;;;;;;5064012;28;46413;-64
2022/04/13 08:28:38;;;;;;;22.20;8.13;;;15.90;37.40;;;;;;5062998;28;46490;-64
2022/04/13 08:31:04;;;;;;;14.73;8.83;;;15.90;37.40;;;;;;5062837;28;46381;-64
2022/04/13 08:33:33;;;;;;;18.30;8.13;;;16.00;36.90;;;;;;5061059;28;46478;-65
2022/04/13 08:35:59;;;;;;;14.23;7.73;;;16.10;37.10;;;;;;5059858;28;46390;-65
2022/04/13 08:38:25;;;;;;;14.83;7.80;;;16.20;37.20;;;;;;5081775;28;46437;-64
2022/04/13 08:40:58;;;;;;;11.53;8.37;;;16.20;37.10;;;;;;5064388;28;46364;-65
2022/04/13 08:43:56;;;;;;;21.77;7.70;;;16.40;36.60;;;;;;5051109;28;48835;-64
2022/04/13 08:46:24;;;;;;;13.03;7.63;;;16.40;36.60;;;;;;5062731;28;45874;-65
2022/04/13 08:48:56;;;;;;;16.00;8.80;;;16.60;36.50;;;;;;5064087;28;46436;-65
2022/04/13 08:51:23;;;;;;;13.23;7.70;;;16.60;36.30;;;;;;5064171;28;45924;-65
2022/04/13 08:54:02;;;;;;;11.70;7.87;;;16.70;36.10;;;;;;5062616;28;46762;-65
2022/04/13 08:56:33;;;;;;;14.10;8.20;;;16.70;36.10;;;;;;5081835;28;46338;-64
2022/04/13 08:59:34;;;;;;;15.93;8.00;;;16.70;36.00;;;;;;5063835;28;46402;-65
2022/04/13 09:02:25;;;;;;;10.10;7.10;;;16.80;35.50;;;;;;5049712;28;46481;-65
2022/04/13 09:04:55;;;;;;;9.87;6.43;;;16.70;35.00;;;;;;5055263;28;48006;-64
2022/04/13 09:07:21;;;;;;;15.73;7.80;;;16.80;35.00;;;;;;5078455;28;46405;-64
2022/04/13 09:09:49;;;;;;;13.47;8.47;;;17.10;34.70;;;;;;5082442;28;46509;-65
2022/04/13 09:12:17;;;;;;;15.53;8.47;;;17.20;34.30;;;;;;5060560;28;46602;-65
2022/04/13 09:14:45;;;;;;;15.80;10.17;;;17.50;33.50;;;;;;5078248;28;47480;-64
2022/04/13 09:17:11;;;;;;;15.27;8.87;;;17.50;33.30;;;;;;5063776;28;46383;-64
2022/04/13 09:19:38;;;;;;;14.43;9.50;;;17.40;33.20;;;;;;5063905;28;46394;-64
2022/04/13 09:22:05;;;;;;;14.03;8.43;;;17.30;33.00;;;;;;5063747;28;46387;-64
2022/04/13 09:24:32;;;;;;;10.23;7.80;;;17.40;33.00;;;;;;5062011;28;48601;-64
2022/04/13 09:27:02;;;;;;;12.57;8.30;;;17.50;32.70;;;;;;5061790;28;46474;-64
2022/04/13 09:29:28;;;;;;;16.30;8.60;;;17.60;32.00;;;;;;5078390;28;46435;-64
2022/04/13 09:31:54;;;;;;;13.33;7.83;;;17.70;31.90;;;;;;5063899;28;46447;-65
2022/04/13 09:34:20;;;;;;;18.33;9.70;;;17.60;31.80;;;;;;5062314;28;47253;-65
2022/04/13 09:36:48;;;;;;;15.33;9.13;;;17.60;31.80;;;;;;5081552;28;45887;-65
2022/04/13 09:39:15;;;;;;;17.03;8.87;;;17.80;32.00;;;;;;5064319;28;46882;-62
2022/04/13 09:41:41;;;;;;;20.83;8.70;;;18.00;31.60;;;;;;5058038;28;46103;-64
2022/04/13 09:44:15;;;;;;;14.83;8.73;;;18.10;31.50;;;;;;5062435;28;48926;-65
2022/04/13 09:46:42;;;;;;;15.13;9.50;;;18.10;30.70;;;;;;5055176;28;46422;-64
2022/04/13 09:49:16;;;;;;;18.27;10.70;;;18.20;30.90;;;;;;5062209;28;46401;-64
2022/04/13 09:51:46;;;;;;;17.83;8.77;;;18.40;30.40;;;;;;5078151;28;46709;-65
2022/04/13 09:54:12;;;;;;;16.73;8.50;;;18.70;30.50;;;;;;5081622;28;47308;-64
2022/04/13 09:56:43;;;;;;;17.93;9.63;;;18.80;30.20;;;;;;5080415;28;46403;-64
2022/04/13 09:59:10;;;;;;;23.43;9.30;;;18.90;30.10;;;;;;5062803;28;46342;-65
2022/04/13 10:01:36;;;;;;;17.00;9.73;;;18.90;30.00;;;;;;5081579;28;46414;-64
2022/04/13 10:04:03;;;;;;;17.20;9.60;;;18.90;29.70;;;;;;5062958;28;46539;-64
2022/04/13 10:06:33;;;;;;;20.70;10.50;;;19.00;29.60;;;;;;5081404;28;46457;-63
2022/04/13 10:09:06;;;;;;;16.43;8.87;;;19.10;29.50;;;;;;5059933;28;46448;-65
2022/04/13 10:11:31;;;;;;;16.20;9.10;;;18.90;29.30;;;;;;5081957;28;46366;-65
2022/04/13 10:14:01;;;;;;;16.30;9.43;;;19.00;29.40;;;;;;5060971;28;47676;-64
2022/04/13 10:16:34;;;;;;;22.20;9.80;;;19.00;29.50;;;;;;5081507;28;46263;-65
2022/04/13 10:19:04;;;;;;;15.33;9.93;;;19.00;29.60;;;;;;5062760;28;46369;-64
2022/04/13 10:21:46;;;;;;;13.50;9.30;;;19.20;29.50;;;;;;5064146;28;46593;-65
2022/04/13 10:24:24;;;;;;;18.37;9.60;;;19.10;29.50;;;;;;5062091;28;46589;-63
2022/04/13 10:27:04;;;;;;;18.63;9.30;;;19.00;29.50;;;;;;5077704;28;46769;-64
2022/04/13 10:29:41;;;;;;;20.97;9.67;;;19.00;29.50;;;;;;5055790;28;46469;-65
2022/04/13 10:32:16;;;;;;;12.90;7.57;;;19.00;29.50;;;;;;5053915;28;46341;-64
2022/04/13 10:34:44;;;;;;;20.60;11.47;;;19.20;29.50;;;;;;5060854;28;47826;-63
2022/04/13 10:37:14;;;;;;;19.47;9.67;;;19.30;29.10;;;;;;5077779;28;46384;-64
2022/04/13 10:39:41;;;;;;;15.63;9.63;;;19.30;29.10;;;;;;5062904;28;46437;-63
2022/04/13 10:42:11;;;;;;;13.40;9.03;;;19.40;28.90;;;;;;5063060;28;46426;-63
2022/04/13 10:44:48;;;;;;;14.90;9.23;;;19.60;28.70;;;;;;5063158;28;48056;-64
2022/04/13 10:47:24;;;;;;;16.70;8.20;;;19.70;28.10;;;;;;5083228;28;46463;-64
2022/04/13 10:49:55;;;;;;;13.20;8.23;;;19.50;28.50;;;;;;5065819;28;46500;-66
2022/04/13 10:52:27;;;;;;;13.83;7.53;;;19.70;28.50;;;;;;5081084;28;46338;-64
2022/04/13 10:55:03;;;;;;;13.30;8.33;;;20.00;28.10;;;;;;5062649;28;46566;-65
2022/04/13 10:57:36;;;;;;;18.93;8.47;;;20.10;27.70;;;;;;5064381;28;46228;-64
2022/04/13 11:00:05;;;;;;;11.57;7.10;;;20.30;27.80;;;;;;5057803;28;46181;-64
2022/04/13 11:02:57;;;;;;;14.10;7.80;;;20.30;26.90;;;;;;5063079;28;46373;-65
2022/04/13 11:05:25;;;;;;;11.67;8.03;;;20.30;27.10;;;;;;5064935;28;48211;-64
2022/04/13 11:08:10;;;;;;;19.30;8.80;;;20.20;27.60;;;;;;5063054;28;46509;-64
2022/04/13 11:10:37;;;;;;;15.30;7.37;;;20.00;28.00;;;;;;5065560;28;46362;-65
2022/04/13 11:13:03;;;;;;;13.83;7.13;;;20.10;28.30;;;;;;5063946;28;46425;-65
2022/04/13 11:15:44;;;;;;;15.40;8.10;;;20.20;28.00;;;;;;5066008;28;47948;-65
2022/04/13 11:18:11;;;;;;;12.93;7.40;;;20.30;27.90;;;;;;5063523;28;46354;-65
2022/04/13 11:20:58;;;;;;;12.80;7.57;;;20.30;27.50;;;;;;5059763;28;46461;-65
2022/04/13 11:23:24;;;;;;;14.03;7.87;;;20.20;27.30;;;;;;5064127;28;46659;-62
2022/04/13 11:25:54;;;;;;;14.13;8.70;;;20.30;27.50;;;;;;5061250;28;47842;-64
2022/04/13 11:28:28;;;;;;;19.30;8.27;;;20.30;27.80;;;;;;5061472;28;46445;-65
2022/04/13 11:31:13;;;;;;;11.57;7.60;;;20.30;28.10;;;;;;5062580;28;45951;-64
2022/04/13 11:33:55;;;;;;;11.00;6.40;;;20.50;27.50;;;;;;5060075;28;46782;-65
2022/04/13 11:36:23;;;;;;;11.87;7.23;;;20.60;27.30;;;;;;5077143;28;47921;-65
2022/04/13 11:38:53;;;;;;;10.27;6.50;;;20.70;26.90;;;;;;5058511;28;46553;-64
2022/04/13 11:41:20;;;;;;;14.33;7.17;;;20.80;26.80;;;;;;5065081;28;46590;-63
2022/04/13 11:43:47;;;;;;;11.17;7.37;;;20.90;26.40;;;;;;5079379;28;46446;-64
2022/04/13 11:46:36;;;;;;;10.47;6.43;;;20.90;26.60;;;;;;5065278;28;48688;-64
2022/04/13 11:49:03;;;;;;;9.53;6.27;;;21.00;26.50;;;;;;5056609;28;46456;-64
2022/04/13 11:51:32;;;;;;;14.80;5.80;;;21.10;26.00;;;;;;5065519;28;46428;-66
2022/04/13 11:54:13;;;;;;;13.43;5.33;;;21.00;25.50;;;;;;5081094;28;46370;-65
2022/04/13 11:56:49;;;;;;;9.80;5.37;;;21.10;25.20;;;;;;5063858;28;48071;-65
2022/04/13 11:59:49;;;;;;;11.60;6.37;;;21.00;24.40;;;;;;5073860;28;46459;-64
2022/04/13 12:02:16;;;;;;;13.60;5.90;;;21.10;24.80;;;;;;5064931;28;46287;-64
2022/04/13 12:04:47;;;;;;;7.87;4.83;;;21.10;24.60;;;;;;5083692;28;46504;-64
2022/04/13 12:07:12;;;;;;;6.10;3.60;;;21.10;24.20;;;;;;5065431;28;47983;-64
2022/04/13 12:09:38;;;;;;;7.70;3.83;;;21.20;23.30;;;;;;5083309;28;46409;-65
2022/04/13 12:12:04;;;;;;;7.07;3.60;;;21.20;23.30;;;;;;5083011;28;46297;-64
2022/04/13 12:14:33;;;;;;;8.40;4.33;;;21.20;23.10;;;;;;5062431;28;46797;-64
2022/04/13 12:17:02;;;;;;;18.00;4.10;;;21.20;22.90;;;;;;5064498;28;48365;-66
2022/04/13 12:19:41;;;;;;;8.53;4.60;;;21.20;22.20;;;;;;5064024;28;46385;-65
2022/04/13 12:22:18;;;;;;;8.20;4.23;;;21.20;22.40;;;;;;5058686;28;45860;-64
2022/04/13 12:24:56;;;;;;;8.30;3.13;;;21.20;22.20;;;;;;5051144;28;46565;-64
2022/04/13 12:27:23;;;;;;;6.03;3.57;;;21.20;21.80;;;;;;5062868;28;47934;-63
2022/04/13 12:29:49;;;;;;;5.90;3.27;;;21.30;21.80;;;;;;5063101;28;46359;-63
2022/04/13 12:32:18;;;;;;;9.53;3.60;;;21.30;21.40;;;;;;5061808;28;46453;-64
2022/04/13 12:34:44;;;;;;;5.33;3.00;;;21.30;21.00;;;;;;5082049;28;45918;-65
2022/04/13 12:37:09;;;;;;;5.60;2.80;;;21.30;21.00;;;;;;5064345;28;47989;-64
2022/04/13 12:39:36;;;;;;;7.60;2.73;;;21.50;20.60;;;;;;5064619;28;46860;-65
2022/04/13 12:42:04;;;;;;;6.93;3.00;;;21.40;19.80;;;;;;5061589;28;46591;-63
2022/04/13 12:44:30;;;;;;;8.30;4.53;;;21.40;19.50;;;;;;5064365;28;46420;-65
2022/04/13 12:47:09;;;;;;;4.53;2.53;;;21.50;19.70;;;;;;5062203;28;46343;-64
2022/04/13 12:49:38;;;;;;;6.47;2.80;;;21.60;19.30;;;;;;5064553;28;45781;-64
2022/04/13 12:52:08;;;;;;;3.97;2.50;;;21.60;19.40;;;;;;5063748;28;46489;-64